sensor_id;sensor_type;location;lat;lon;timestamp;P1;durP1;ratioP1;P2;durP2;ratioP2
72113;SDS011;59989;46.220;19.888;2022-07-06T00:02:15;10.70;;;5.57;;
72113;SDS011;59989;46.220;19.888;2022-07-06T00:05:18;9.50;;;6.05;;
72113;SDS011;59989;46.220;19.888;2022-07-06T00:08:20;9.50;;;6.13;;
72113;SDS011;59989;46.220;19.888;2022-07-06T00:11:23;9.73;;;5.63;;
72113;SDS011;59989;46.220;19.888;2022-07-06T00:14:26;10.38;;;5.95;;
72113;SDS011;59989;46.220;19.888;2022-07-06T00:17:28;9.83;;;5.57;;
72113;SDS011;59989;46.220;19.888;2022-07-06T00:20:31;10.43;;;6.22;;
72113;SDS011;59989;46.220;19.888;2022-07-06T00:23:33;9.98;;;5.88;;
72113;SDS011;59989;46.220;19.888;2022-07-06T00:26:36;10.18;;;6.15;;
72113;SDS011;59989;46.220;19.888;2022-07-06T00:29:38;9.50;;;6.30;;
72113;SDS011;59989;46.220;19.888;2022-07-06T00:32:45;11.17;;;6.37;;
72113;SDS011;59989;46.220;19.888;2022-07-06T00:35:48;9.82;;;6.05;;
72113;SDS011;59989;46.220;19.888;2022-07-06T00:38:51;9.88;;;6.20;;
72113;SDS011;59989;46.220;19.888;2022-07-06T00:41:53;11.60;;;5.95;;
72113;SDS011;59989;46.220;19.888;2022-07-06T00:44:56;9.60;;;5.72;;
72113;SDS011;59989;46.220;19.888;2022-07-06T00:47:58;10.07;;;5.33;;
72113;SDS011;59989;46.220;19.888;2022-07-06T00:51:01;12.02;;;5.70;;
72113;SDS011;59989;46.220;19.888;2022-07-06T00:54:04;8.75;;;5.55;;
72113;SDS011;59989;46.220;19.888;2022-07-06T00:57:07;10.55;;;5.53;;
72113;SDS011;59989;46.220;19.888;2022-07-06T01:00:10;9.20;;;5.25;;
72113;SDS011;59989;46.220;19.888;2022-07-06T01:03:15;8.63;;;5.30;;
72113;SDS011;59989;46.220;19.888;2022-07-06T01:06:18;23.38;;;5.53;;
72113;SDS011;59989;46.220;19.888;2022-07-06T01:09:20;10.05;;;5.70;;
72113;SDS011;59989;46.220;19.888;2022-07-06T01:12:24;8.20;;;4.70;;
72113;SDS011;59989;46.220;19.888;2022-07-06T01:15:27;10.15;;;5.13;;
72113;SDS011;59989;46.220;19.888;2022-07-06T01:18:29;8.67;;;4.97;;
72113;SDS011;59989;46.220;19.888;2022-07-06T01:21:32;9.23;;;5.38;;
72113;SDS011;59989;46.220;19.888;2022-07-06T01:24:35;8.85;;;5.15;;
72113;SDS011;59989;46.220;19.888;2022-07-06T01:27:39;8.23;;;4.60;;
72113;SDS011;59989;46.220;19.888;2022-07-06T01:30:42;9.65;;;4.90;;
72113;SDS011;59989;46.220;19.888;2022-07-06T01:33:44;8.73;;;4.70;;
72113;SDS011;59989;46.220;19.888;2022-07-06T01:36:47;8.77;;;4.22;;
72113;SDS011;59989;46.220;19.888;2022-07-06T01:39:50;8.98;;;4.55;;
72113;SDS011;59989;46.220;19.888;2022-07-06T01:42:52;7.93;;;4.07;;
72113;SDS011;59989;46.220;19.888;2022-07-06T01:45:54;7.72;;;3.85;;
72113;SDS011;59989;46.220;19.888;2022-07-06T01:48:57;9.17;;;4.07;;
72113;SDS011;59989;46.220;19.888;2022-07-06T01:52:00;8.20;;;4.10;;
72113;SDS011;59989;46.220;19.888;2022-07-06T01:55:02;7.57;;;3.95;;
72113;SDS011;59989;46.220;19.888;2022-07-06T01:58:08;8.55;;;4.32;;
72113;SDS011;59989;46.220;19.888;2022-07-06T02:01:11;8.48;;;4.13;;
72113;SDS011;59989;46.220;19.888;2022-07-06T02:04:18;8.53;;;4.83;;
72113;SDS011;59989;46.220;19.888;2022-07-06T02:07:21;8.93;;;4.32;;
72113;SDS011;59989;46.220;19.888;2022-07-06T02:10:23;9.30;;;4.68;;
72113;SDS011;59989;46.220;19.888;2022-07-06T02:13:26;8.15;;;4.70;;
72113;SDS011;59989;46.220;19.888;2022-07-06T02:16:28;9.25;;;5.10;;
72113;SDS011;59989;46.220;19.888;2022-07-06T02:19:32;8.70;;;4.67;;
72113;SDS011;59989;46.220;19.888;2022-07-06T02:22:34;9.02;;;4.90;;
72113;SDS011;59989;46.220;19.888;2022-07-06T02:25:37;8.00;;;4.72;;
72113;SDS011;59989;46.220;19.888;2022-07-06T02:28:39;9.20;;;5.22;;
72113;SDS011;59989;46.220;19.888;2022-07-06T02:31:42;9.95;;;5.60;;
72113;SDS011;59989;46.220;19.888;2022-07-06T02:34:44;9.17;;;4.90;;
72113;SDS011;59989;46.220;19.888;2022-07-06T02:37:47;9.52;;;5.20;;
72113;SDS011;59989;46.220;19.888;2022-07-06T02:40:50;8.77;;;5.22;;
72113;SDS011;59989;46.220;19.888;2022-07-06T02:43:53;9.95;;;5.60;;
72113;SDS011;59989;46.220;19.888;2022-07-06T02:46:55;9.20;;;5.55;;
72113;SDS011;59989;46.220;19.888;2022-07-06T02:49:58;8.67;;;5.30;;
72113;SDS011;59989;46.220;19.888;2022-07-06T02:53:02;9.68;;;5.35;;
72113;SDS011;59989;46.220;19.888;2022-07-06T02:56:06;9.85;;;4.90;;
72113;SDS011;59989;46.220;19.888;2022-07-06T02:59:09;8.80;;;5.25;;
72113;SDS011;59989;46.220;19.888;2022-07-06T03:02:17;9.02;;;5.22;;
72113;SDS011;59989;46.220;19.888;2022-07-06T03:05:20;11.50;;;5.07;;
72113;SDS011;59989;46.220;19.888;2022-07-06T03:08:23;9.18;;;5.05;;
72113;SDS011;59989;46.220;19.888;2022-07-06T03:11:26;10.25;;;5.25;;
72113;SDS011;59989;46.220;19.888;2022-07-06T03:14:28;9.13;;;5.18;;
72113;SDS011;59989;46.220;19.888;2022-07-06T03:17:31;9.85;;;5.82;;
72113;SDS011;59989;46.220;19.888;2022-07-06T03:20:34;9.80;;;4.80;;
72113;SDS011;59989;46.220;19.888;2022-07-06T03:23:36;8.50;;;5.15;;
72113;SDS011;59989;46.220;19.888;2022-07-06T03:26:39;10.05;;;5.45;;
72113;SDS011;59989;46.220;19.888;2022-07-06T03:29:42;10.20;;;5.50;;
72113;SDS011;59989;46.220;19.888;2022-07-06T03:32:46;9.43;;;5.13;;
72113;SDS011;59989;46.220;19.888;2022-07-06T03:35:49;11.57;;;6.03;;
72113;SDS011;59989;46.220;19.888;2022-07-06T03:38:52;10.95;;;5.35;;
72113;SDS011;59989;46.220;19.888;2022-07-06T03:41:56;10.35;;;5.57;;
72113;SDS011;59989;46.220;19.888;2022-07-06T03:44:59;9.75;;;5.90;;
72113;SDS011;59989;46.220;19.888;2022-07-06T03:48:02;10.35;;;5.70;;
72113;SDS011;59989;46.220;19.888;2022-07-06T03:51:06;10.73;;;5.33;;
72113;SDS011;59989;46.220;19.888;2022-07-06T03:54:09;10.50;;;5.75;;
72113;SDS011;59989;46.220;19.888;2022-07-06T03:57:12;9.65;;;5.47;;
72113;SDS011;59989;46.220;19.888;2022-07-06T04:00:15;8.48;;;5.45;;
72113;SDS011;59989;46.220;19.888;2022-07-06T04:03:26;9.48;;;5.18;;
72113;SDS011;59989;46.220;19.888;2022-07-06T04:06:34;8.77;;;4.97;;
72113;SDS011;59989;46.220;19.888;2022-07-06T04:09:38;9.45;;;5.00;;
72113;SDS011;59989;46.220;19.888;2022-07-06T04:12:42;9.00;;;4.40;;
72113;SDS011;59989;46.220;19.888;2022-07-06T04:15:45;9.32;;;4.85;;
72113;SDS011;59989;46.220;19.888;2022-07-06T04:18:48;9.40;;;4.72;;
72113;SDS011;59989;46.220;19.888;2022-07-06T04:21:51;8.03;;;4.63;;
72113;SDS011;59989;46.220;19.888;2022-07-06T04:24:54;8.52;;;4.60;;
72113;SDS011;59989;46.220;19.888;2022-07-06T04:27:58;8.98;;;5.10;;
72113;SDS011;59989;46.220;19.888;2022-07-06T04:31:01;8.73;;;4.60;;
72113;SDS011;59989;46.220;19.888;2022-07-06T04:34:04;8.50;;;4.55;;
72113;SDS011;59989;46.220;19.888;2022-07-06T04:37:08;11.43;;;4.77;;
72113;SDS011;59989;46.220;19.888;2022-07-06T04:40:11;8.65;;;4.63;;
72113;SDS011;59989;46.220;19.888;2022-07-06T04:43:21;9.98;;;4.40;;
72113;SDS011;59989;46.220;19.888;2022-07-06T04:46:23;13.00;;;5.88;;
72113;SDS011;59989;46.220;19.888;2022-07-06T04:49:28;10.38;;;5.18;;
72113;SDS011;59989;46.220;19.888;2022-07-06T04:52:31;10.20;;;4.57;;
72113;SDS011;59989;46.220;19.888;2022-07-06T04:55:33;10.90;;;4.97;;
72113;SDS011;59989;46.220;19.888;2022-07-06T04:58:37;9.48;;;4.88;;
72113;SDS011;59989;46.220;19.888;2022-07-06T05:01:42;10.63;;;5.35;;
72113;SDS011;59989;46.220;19.888;2022-07-06T05:04:45;8.55;;;5.05;;
72113;SDS011;59989;46.220;19.888;2022-07-06T05:07:48;9.43;;;4.60;;
72113;SDS011;59989;46.220;19.888;2022-07-06T05:10:51;8.65;;;4.30;;
72113;SDS011;59989;46.220;19.888;2022-07-06T05:13:55;8.30;;;4.80;;
72113;SDS011;59989;46.220;19.888;2022-07-06T05:16:58;8.75;;;4.60;;
72113;SDS011;59989;46.220;19.888;2022-07-06T05:20:01;10.02;;;4.65;;
72113;SDS011;59989;46.220;19.888;2022-07-06T05:23:07;11.80;;;4.60;;
72113;SDS011;59989;46.220;19.888;2022-07-06T05:26:10;7.70;;;4.38;;
72113;SDS011;59989;46.220;19.888;2022-07-06T05:29:13;9.55;;;4.78;;
72113;SDS011;59989;46.220;19.888;2022-07-06T05:32:17;9.32;;;4.57;;
72113;SDS011;59989;46.220;19.888;2022-07-06T05:35:20;8.95;;;4.65;;
72113;SDS011;59989;46.220;19.888;2022-07-06T05:38:43;8.97;;;4.43;;
72113;SDS011;59989;46.220;19.888;2022-07-06T05:41:46;9.30;;;4.00;;
72113;SDS011;59989;46.220;19.888;2022-07-06T05:44:49;9.27;;;4.60;;
72113;SDS011;59989;46.220;19.888;2022-07-06T05:47:52;7.95;;;3.97;;
72113;SDS011;59989;46.220;19.888;2022-07-06T05:51:14;10.18;;;4.47;;
72113;SDS011;59989;46.220;19.888;2022-07-06T05:54:18;8.37;;;4.33;;
72113;SDS011;59989;46.220;19.888;2022-07-06T05:57:22;9.95;;;4.20;;
72113;SDS011;59989;46.220;19.888;2022-07-06T06:00:25;8.75;;;4.18;;
72113;SDS011;59989;46.220;19.888;2022-07-06T06:03:34;7.82;;;4.15;;
72113;SDS011;59989;46.220;19.888;2022-07-06T06:06:38;8.85;;;3.88;;
72113;SDS011;59989;46.220;19.888;2022-07-06T06:09:40;8.47;;;3.73;;
72113;SDS011;59989;46.220;19.888;2022-07-06T06:12:43;9.18;;;4.05;;
72113;SDS011;59989;46.220;19.888;2022-07-06T06:15:46;9.45;;;4.13;;
72113;SDS011;59989;46.220;19.888;2022-07-06T06:18:50;9.90;;;3.67;;
72113;SDS011;59989;46.220;19.888;2022-07-06T06:21:53;9.00;;;3.65;;
72113;SDS011;59989;46.220;19.888;2022-07-06T06:24:55;9.00;;;3.73;;
72113;SDS011;59989;46.220;19.888;2022-07-06T06:27:58;8.75;;;3.97;;
72113;SDS011;59989;46.220;19.888;2022-07-06T06:31:01;10.05;;;3.90;;
72113;SDS011;59989;46.220;19.888;2022-07-06T06:34:03;8.52;;;3.30;;
72113;SDS011;59989;46.220;19.888;2022-07-06T06:37:05;7.20;;;3.50;;
72113;SDS011;59989;46.220;19.888;2022-07-06T06:40:08;9.07;;;3.43;;
72113;SDS011;59989;46.220;19.888;2022-07-06T06:43:11;7.80;;;3.08;;
72113;SDS011;59989;46.220;19.888;2022-07-06T06:46:30;7.13;;;3.50;;
72113;SDS011;59989;46.220;19.888;2022-07-06T06:49:32;7.70;;;3.60;;
72113;SDS011;59989;46.220;19.888;2022-07-06T06:52:35;9.32;;;3.40;;
72113;SDS011;59989;46.220;19.888;2022-07-06T06:55:41;7.07;;;2.90;;
72113;SDS011;59989;46.220;19.888;2022-07-06T06:58:44;7.72;;;3.60;;
72113;SDS011;59989;46.220;19.888;2022-07-06T07:02:07;7.68;;;3.40;;
72113;SDS011;59989;46.220;19.888;2022-07-06T07:05:09;7.53;;;3.55;;
72113;SDS011;59989;46.220;19.888;2022-07-06T07:08:12;8.00;;;3.30;;
72113;SDS011;59989;46.220;19.888;2022-07-06T07:11:14;9.23;;;3.40;;
72113;SDS011;59989;46.220;19.888;2022-07-06T07:14:17;7.72;;;3.40;;
72113;SDS011;59989;46.220;19.888;2022-07-06T07:17:19;7.47;;;3.30;;
72113;SDS011;59989;46.220;19.888;2022-07-06T07:20:22;8.55;;;3.35;;
72113;SDS011;59989;46.220;19.888;2022-07-06T07:23:24;7.53;;;2.83;;
72113;SDS011;59989;46.220;19.888;2022-07-06T07:26:27;7.53;;;3.30;;
72113;SDS011;59989;46.220;19.888;2022-07-06T07:29:30;8.88;;;3.45;;
72113;SDS011;59989;46.220;19.888;2022-07-06T07:32:33;8.70;;;3.40;;
72113;SDS011;59989;46.220;19.888;2022-07-06T07:35:36;7.47;;;3.05;;
72113;SDS011;59989;46.220;19.888;2022-07-06T07:38:38;10.07;;;3.67;;
72113;SDS011;59989;46.220;19.888;2022-07-06T07:41:41;10.07;;;2.97;;
72113;SDS011;59989;46.220;19.888;2022-07-06T07:44:44;9.90;;;3.53;;
72113;SDS011;59989;46.220;19.888;2022-07-06T07:47:46;13.10;;;6.38;;
72113;SDS011;59989;46.220;19.888;2022-07-06T07:50:49;8.35;;;3.63;;
72113;SDS011;59989;46.220;19.888;2022-07-06T07:53:51;8.48;;;2.80;;
72113;SDS011;59989;46.220;19.888;2022-07-06T07:56:54;6.90;;;2.83;;
72113;SDS011;59989;46.220;19.888;2022-07-06T07:59:57;7.53;;;2.88;;
72113;SDS011;59989;46.220;19.888;2022-07-06T08:02:59;15.52;;;3.38;;
72113;SDS011;59989;46.220;19.888;2022-07-06T08:06:02;6.95;;;2.60;;
72113;SDS011;59989;46.220;19.888;2022-07-06T08:09:05;9.48;;;2.80;;
72113;SDS011;59989;46.220;19.888;2022-07-06T08:12:09;6.30;;;2.60;;
72113;SDS011;59989;46.220;19.888;2022-07-06T08:15:12;7.55;;;2.90;;
72113;SDS011;59989;46.220;19.888;2022-07-06T08:18:14;6.97;;;2.70;;
72113;SDS011;59989;46.220;19.888;2022-07-06T08:21:17;6.97;;;2.50;;
72113;SDS011;59989;46.220;19.888;2022-07-06T08:24:26;9.48;;;2.40;;
72113;SDS011;59989;46.220;19.888;2022-07-06T08:27:29;7.50;;;2.57;;
72113;SDS011;59989;46.220;19.888;2022-07-06T08:30:31;6.75;;;2.45;;
72113;SDS011;59989;46.220;19.888;2022-07-06T08:33:36;7.05;;;2.65;;
72113;SDS011;59989;46.220;19.888;2022-07-06T08:36:39;7.28;;;2.60;;
72113;SDS011;59989;46.220;19.888;2022-07-06T08:39:42;6.88;;;3.08;;
72113;SDS011;59989;46.220;19.888;2022-07-06T08:42:44;15.93;;;3.37;;
72113;SDS011;59989;46.220;19.888;2022-07-06T08:45:50;9.32;;;3.10;;
72113;SDS011;59989;46.220;19.888;2022-07-06T08:48:55;7.78;;;2.67;;
72113;SDS011;59989;46.220;19.888;2022-07-06T08:52:00;7.10;;;3.00;;
72113;SDS011;59989;46.220;19.888;2022-07-06T08:55:04;7.25;;;3.30;;
72113;SDS011;59989;46.220;19.888;2022-07-06T08:58:07;7.20;;;3.50;;
72113;SDS011;59989;46.220;19.888;2022-07-06T09:01:11;9.95;;;3.95;;
72113;SDS011;59989;46.220;19.888;2022-07-06T09:04:18;9.25;;;3.65;;
72113;SDS011;59989;46.220;19.888;2022-07-06T09:07:25;9.95;;;3.97;;
72113;SDS011;59989;46.220;19.888;2022-07-06T09:10:50;11.35;;;4.30;;
72113;SDS011;59989;46.220;19.888;2022-07-06T09:13:52;9.00;;;4.60;;
72113;SDS011;59989;46.220;19.888;2022-07-06T09:17:02;8.38;;;4.50;;
72113;SDS011;59989;46.220;19.888;2022-07-06T09:20:07;8.85;;;4.60;;
72113;SDS011;59989;46.220;19.888;2022-07-06T09:23:11;10.13;;;4.90;;
72113;SDS011;59989;46.220;19.888;2022-07-06T09:26:18;11.02;;;5.20;;
72113;SDS011;59989;46.220;19.888;2022-07-06T09:29:26;9.97;;;4.77;;
72113;SDS011;59989;46.220;19.888;2022-07-06T09:32:39;8.05;;;3.92;;
72113;SDS011;59989;46.220;19.888;2022-07-06T09:35:42;11.45;;;4.65;;
72113;SDS011;59989;46.220;19.888;2022-07-06T09:38:48;9.50;;;4.07;;
72113;SDS011;59989;46.220;19.888;2022-07-06T09:41:54;8.80;;;3.58;;
72113;SDS011;59989;46.220;19.888;2022-07-06T09:45:01;8.87;;;2.83;;
72113;SDS011;59989;46.220;19.888;2022-07-06T09:48:14;9.05;;;2.70;;
72113;SDS011;59989;46.220;19.888;2022-07-06T09:51:20;7.22;;;2.65;;
72113;SDS011;59989;46.220;19.888;2022-07-06T09:54:27;8.35;;;2.45;;
72113;SDS011;59989;46.220;19.888;2022-07-06T09:57:30;7.97;;;2.65;;
72113;SDS011;59989;46.220;19.888;2022-07-06T10:00:33;6.33;;;2.30;;
72113;SDS011;59989;46.220;19.888;2022-07-06T10:03:35;5.95;;;2.30;;
72113;SDS011;59989;46.220;19.888;2022-07-06T10:06:39;6.45;;;2.22;;
72113;SDS011;59989;46.220;19.888;2022-07-06T10:09:42;9.98;;;2.20;;
72113;SDS011;59989;46.220;19.888;2022-07-06T10:12:46;6.93;;;1.80;;
72113;SDS011;59989;46.220;19.888;2022-07-06T10:15:52;5.80;;;1.60;;
72113;SDS011;59989;46.220;19.888;2022-07-06T10:18:54;5.47;;;1.40;;
72113;SDS011;59989;46.220;19.888;2022-07-06T10:21:59;5.32;;;1.35;;
72113;SDS011;59989;46.220;19.888;2022-07-06T10:25:07;14.23;;;1.92;;
72113;SDS011;59989;46.220;19.888;2022-07-06T10:28:10;12.82;;;1.50;;
72113;SDS011;59989;46.220;19.888;2022-07-06T10:31:17;9.23;;;1.30;;
72113;SDS011;59989;46.220;19.888;2022-07-06T10:34:20;11.50;;;1.40;;
72113;SDS011;59989;46.220;19.888;2022-07-06T10:37:27;4.90;;;1.10;;
72113;SDS011;59989;46.220;19.888;2022-07-06T10:40:34;4.75;;;1.00;;
72113;SDS011;59989;46.220;19.888;2022-07-06T10:43:57;6.53;;;1.17;;
72113;SDS011;59989;46.220;19.888;2022-07-06T10:47:00;5.37;;;1.00;;
72113;SDS011;59989;46.220;19.888;2022-07-06T10:50:03;7.82;;;1.10;;
72113;SDS011;59989;46.220;19.888;2022-07-06T10:53:14;5.18;;;1.10;;
72113;SDS011;59989;46.220;19.888;2022-07-06T10:56:38;6.88;;;1.50;;
72113;SDS011;59989;46.220;19.888;2022-07-06T10:59:59;5.60;;;1.50;;
72113;SDS011;59989;46.220;19.888;2022-07-06T11:06:46;7.35;;;1.10;;
72113;SDS011;59989;46.220;19.888;2022-07-06T11:09:56;5.18;;;1.13;;
72113;SDS011;59989;46.220;19.888;2022-07-06T11:13:01;4.18;;;1.30;;
72113;SDS011;59989;46.220;19.888;2022-07-06T11:16:03;9.27;;;1.30;;
72113;SDS011;59989;46.220;19.888;2022-07-06T11:19:09;8.30;;;1.00;;
72113;SDS011;59989;46.220;19.888;2022-07-06T11:22:14;3.67;;;0.90;;
72113;SDS011;59989;46.220;19.888;2022-07-06T11:25:17;5.97;;;1.30;;
72113;SDS011;59989;46.220;19.888;2022-07-06T11:28:21;5.65;;;1.02;;
72113;SDS011;59989;46.220;19.888;2022-07-06T11:31:24;5.13;;;1.00;;
72113;SDS011;59989;46.220;19.888;2022-07-06T11:34:27;3.83;;;0.90;;
72113;SDS011;59989;46.220;19.888;2022-07-06T11:37:32;3.42;;;0.80;;
72113;SDS011;59989;46.220;19.888;2022-07-06T11:40:38;4.32;;;1.00;;
72113;SDS011;59989;46.220;19.888;2022-07-06T11:43:41;4.53;;;1.00;;
72113;SDS011;59989;46.220;19.888;2022-07-06T11:46:47;4.85;;;1.23;;
72113;SDS011;59989;46.220;19.888;2022-07-06T11:49:50;5.57;;;0.70;;
72113;SDS011;59989;46.220;19.888;2022-07-06T11:52:53;3.55;;;1.00;;
72113;SDS011;59989;46.220;19.888;2022-07-06T11:56:01;3.78;;;1.00;;
72113;SDS011;59989;46.220;19.888;2022-07-06T11:59:04;3.25;;;0.90;;
72113;SDS011;59989;46.220;19.888;2022-07-06T12:02:09;6.63;;;1.00;;
72113;SDS011;59989;46.220;19.888;2022-07-06T12:05:27;2.03;;;0.60;;
72113;SDS011;59989;46.220;19.888;2022-07-06T12:08:31;6.57;;;1.00;;
72113;SDS011;59989;46.220;19.888;2022-07-06T12:11:36;3.80;;;1.10;;
72113;SDS011;59989;46.220;19.888;2022-07-06T12:14:39;3.90;;;1.10;;
72113;SDS011;59989;46.220;19.888;2022-07-06T12:17:46;3.75;;;0.95;;
72113;SDS011;59989;46.220;19.888;2022-07-06T12:20:52;3.30;;;1.00;;
72113;SDS011;59989;46.220;19.888;2022-07-06T12:23:54;5.82;;;0.90;;
72113;SDS011;59989;46.220;19.888;2022-07-06T12:26:58;2.38;;;0.80;;
72113;SDS011;59989;46.220;19.888;2022-07-06T12:30:10;4.88;;;0.80;;
72113;SDS011;59989;46.220;19.888;2022-07-06T12:33:14;6.35;;;1.40;;
72113;SDS011;59989;46.220;19.888;2022-07-06T12:36:18;5.93;;;1.33;;
72113;SDS011;59989;46.220;19.888;2022-07-06T12:39:24;4.40;;;1.20;;
72113;SDS011;59989;46.220;19.888;2022-07-06T12:42:31;3.42;;;1.20;;
72113;SDS011;59989;46.220;19.888;2022-07-06T12:45:33;4.47;;;1.10;;
72113;SDS011;59989;46.220;19.888;2022-07-06T12:48:50;4.47;;;1.30;;
72113;SDS011;59989;46.220;19.888;2022-07-06T12:52:12;3.53;;;1.20;;
72113;SDS011;59989;46.220;19.888;2022-07-06T12:55:16;5.65;;;1.40;;
72113;SDS011;59989;46.220;19.888;2022-07-06T12:58:27;5.75;;;1.30;;
72113;SDS011;59989;46.220;19.888;2022-07-06T13:01:30;8.48;;;1.50;;
72113;SDS011;59989;46.220;19.888;2022-07-06T13:04:32;6.57;;;1.48;;
72113;SDS011;59989;46.220;19.888;2022-07-06T13:07:35;4.97;;;1.50;;
72113;SDS011;59989;46.220;19.888;2022-07-06T13:10:39;8.25;;;1.50;;
72113;SDS011;59989;46.220;19.888;2022-07-06T13:13:44;5.25;;;1.70;;
72113;SDS011;59989;46.220;19.888;2022-07-06T13:16:46;6.97;;;1.67;;
72113;SDS011;59989;46.220;19.888;2022-07-06T13:19:50;5.00;;;1.67;;
72113;SDS011;59989;46.220;19.888;2022-07-06T13:22:53;5.60;;;1.80;;
72113;SDS011;59989;46.220;19.888;2022-07-06T13:25:55;5.50;;;1.70;;
72113;SDS011;59989;46.220;19.888;2022-07-06T13:28:57;7.78;;;2.00;;
72113;SDS011;59989;46.220;19.888;2022-07-06T13:32:01;6.00;;;1.75;;
72113;SDS011;59989;46.220;19.888;2022-07-06T13:35:05;5.40;;;1.80;;
72113;SDS011;59989;46.220;19.888;2022-07-06T13:38:08;7.43;;;2.20;;
72113;SDS011;59989;46.220;19.888;2022-07-06T13:41:16;9.80;;;2.30;;
72113;SDS011;59989;46.220;19.888;2022-07-06T13:44:18;13.77;;;2.42;;
72113;SDS011;59989;46.220;19.888;2022-07-06T13:47:21;15.15;;;2.55;;
72113;SDS011;59989;46.220;19.888;2022-07-06T13:50:24;7.55;;;2.20;;
72113;SDS011;59989;46.220;19.888;2022-07-06T13:53:27;9.63;;;2.03;;
72113;SDS011;59989;46.220;19.888;2022-07-06T13:56:30;6.60;;;2.33;;
72113;SDS011;59989;46.220;19.888;2022-07-06T13:59:33;12.23;;;2.67;;
72113;SDS011;59989;46.220;19.888;2022-07-06T14:02:35;12.80;;;2.50;;
72113;SDS011;59989;46.220;19.888;2022-07-06T14:05:38;9.77;;;2.40;;
72113;SDS011;59989;46.220;19.888;2022-07-06T14:08:40;6.23;;;2.37;;
72113;SDS011;59989;46.220;19.888;2022-07-06T14:11:43;8.65;;;2.40;;
72113;SDS011;59989;46.220;19.888;2022-07-06T14:14:45;7.45;;;2.85;;
72113;SDS011;59989;46.220;19.888;2022-07-06T14:17:48;5.50;;;2.53;;
72113;SDS011;59989;46.220;19.888;2022-07-06T14:20:51;7.18;;;2.88;;
72113;SDS011;59989;46.220;19.888;2022-07-06T14:23:54;7.13;;;2.80;;
72113;SDS011;59989;46.220;19.888;2022-07-06T14:26:56;4.68;;;1.40;;
72113;SDS011;59989;46.220;19.888;2022-07-06T14:29:59;5.43;;;1.50;;
72113;SDS011;59989;46.220;19.888;2022-07-06T14:33:02;7.03;;;2.00;;
72113;SDS011;59989;46.220;19.888;2022-07-06T14:36:09;5.78;;;1.40;;
72113;SDS011;59989;46.220;19.888;2022-07-06T14:39:11;4.33;;;1.33;;
72113;SDS011;59989;46.220;19.888;2022-07-06T14:42:14;6.30;;;1.52;;
72113;SDS011;59989;46.220;19.888;2022-07-06T14:45:16;8.13;;;1.98;;
72113;SDS011;59989;46.220;19.888;2022-07-06T14:48:19;5.07;;;1.50;;
72113;SDS011;59989;46.220;19.888;2022-07-06T14:51:21;5.13;;;1.60;;
72113;SDS011;59989;46.220;19.888;2022-07-06T14:54:25;5.60;;;1.50;;
72113;SDS011;59989;46.220;19.888;2022-07-06T14:57:27;5.47;;;1.60;;
72113;SDS011;59989;46.220;19.888;2022-07-06T15:00:30;6.38;;;2.30;;
72113;SDS011;59989;46.220;19.888;2022-07-06T15:03:32;7.68;;;1.80;;
72113;SDS011;59989;46.220;19.888;2022-07-06T15:06:35;6.53;;;1.80;;
72113;SDS011;59989;46.220;19.888;2022-07-06T15:09:55;7.20;;;1.90;;
72113;SDS011;59989;46.220;19.888;2022-07-06T15:12:59;12.43;;;3.15;;
72113;SDS011;59989;46.220;19.888;2022-07-06T15:16:02;6.15;;;3.25;;
72113;SDS011;59989;46.220;19.888;2022-07-06T15:19:05;8.73;;;3.55;;
72113;SDS011;59989;46.220;19.888;2022-07-06T15:22:08;7.60;;;3.08;;
72113;SDS011;59989;46.220;19.888;2022-07-06T15:25:10;7.53;;;3.30;;
72113;SDS011;59989;46.220;19.888;2022-07-06T15:28:13;13.82;;;3.47;;
72113;SDS011;59989;46.220;19.888;2022-07-06T15:31:16;7.13;;;2.40;;
72113;SDS011;59989;46.220;19.888;2022-07-06T15:34:24;5.53;;;2.03;;
72113;SDS011;59989;46.220;19.888;2022-07-06T15:37:26;20.38;;;2.10;;
72113;SDS011;59989;46.220;19.888;2022-07-06T15:40:29;11.03;;;1.93;;
72113;SDS011;59989;46.220;19.888;2022-07-06T15:43:36;9.35;;;1.50;;
72113;SDS011;59989;46.220;19.888;2022-07-06T15:46:38;13.45;;;1.90;;
72113;SDS011;59989;46.220;19.888;2022-07-06T15:49:41;9.30;;;1.60;;
72113;SDS011;59989;46.220;19.888;2022-07-06T15:52:43;6.53;;;1.90;;
72113;SDS011;59989;46.220;19.888;2022-07-06T15:55:46;11.17;;;2.00;;
72113;SDS011;59989;46.220;19.888;2022-07-06T15:58:55;7.10;;;1.40;;
72113;SDS011;59989;46.220;19.888;2022-07-06T16:01:58;26.65;;;2.63;;
72113;SDS011;59989;46.220;19.888;2022-07-06T16:05:00;8.23;;;1.48;;
72113;SDS011;59989;46.220;19.888;2022-07-06T16:08:03;13.05;;;2.10;;
72113;SDS011;59989;46.220;19.888;2022-07-06T16:11:26;8.13;;;1.80;;
72113;SDS011;59989;46.220;19.888;2022-07-06T16:14:28;9.18;;;2.10;;
72113;SDS011;59989;46.220;19.888;2022-07-06T16:17:31;7.60;;;1.27;;
72113;SDS011;59989;46.220;19.888;2022-07-06T16:20:34;8.88;;;1.30;;
72113;SDS011;59989;46.220;19.888;2022-07-06T16:23:36;7.13;;;1.60;;
72113;SDS011;59989;46.220;19.888;2022-07-06T16:26:38;8.40;;;1.50;;
72113;SDS011;59989;46.220;19.888;2022-07-06T16:29:43;6.80;;;1.88;;
72113;SDS011;59989;46.220;19.888;2022-07-06T16:32:45;7.38;;;1.88;;
72113;SDS011;59989;46.220;19.888;2022-07-06T16:35:48;7.07;;;1.77;;
72113;SDS011;59989;46.220;19.888;2022-07-06T16:38:58;6.18;;;1.40;;
72113;SDS011;59989;46.220;19.888;2022-07-06T16:42:01;7.00;;;1.83;;
72113;SDS011;59989;46.220;19.888;2022-07-06T16:45:05;9.27;;;1.80;;
72113;SDS011;59989;46.220;19.888;2022-07-06T16:48:08;11.10;;;1.58;;
72113;SDS011;59989;46.220;19.888;2022-07-06T16:51:11;5.65;;;1.55;;
72113;SDS011;59989;46.220;19.888;2022-07-06T16:54:14;9.18;;;2.30;;
72113;SDS011;59989;46.220;19.888;2022-07-06T16:57:16;14.17;;;1.90;;
72113;SDS011;59989;46.220;19.888;2022-07-06T17:00:19;13.27;;;2.20;;
72113;SDS011;59989;46.220;19.888;2022-07-06T17:03:21;10.77;;;1.90;;
72113;SDS011;59989;46.220;19.888;2022-07-06T17:06:24;13.48;;;1.52;;
72113;SDS011;59989;46.220;19.888;2022-07-06T17:09:26;30.60;;;3.35;;
72113;SDS011;59989;46.220;19.888;2022-07-06T17:12:29;9.03;;;1.33;;
72113;SDS011;59989;46.220;19.888;2022-07-06T17:15:34;7.97;;;1.10;;
72113;SDS011;59989;46.220;19.888;2022-07-06T17:18:37;11.48;;;1.60;;
72113;SDS011;59989;46.220;19.888;2022-07-06T17:21:39;9.63;;;1.38;;
72113;SDS011;59989;46.220;19.888;2022-07-06T17:24:42;4.78;;;1.00;;
72113;SDS011;59989;46.220;19.888;2022-07-06T17:27:44;8.77;;;1.20;;
72113;SDS011;59989;46.220;19.888;2022-07-06T17:30:55;5.35;;;1.10;;
72113;SDS011;59989;46.220;19.888;2022-07-06T17:33:57;6.45;;;1.30;;
72113;SDS011;59989;46.220;19.888;2022-07-06T17:37:00;4.90;;;1.10;;
72113;SDS011;59989;46.220;19.888;2022-07-06T17:40:03;8.27;;;1.45;;
72113;SDS011;59989;46.220;19.888;2022-07-06T17:43:06;5.17;;;1.10;;
72113;SDS011;59989;46.220;19.888;2022-07-06T17:46:08;5.63;;;0.95;;
72113;SDS011;59989;46.220;19.888;2022-07-06T17:49:11;5.40;;;1.23;;
72113;SDS011;59989;46.220;19.888;2022-07-06T17:52:20;8.73;;;1.15;;
72113;SDS011;59989;46.220;19.888;2022-07-06T17:55:23;5.75;;;1.20;;
72113;SDS011;59989;46.220;19.888;2022-07-06T17:58:26;6.73;;;1.30;;
72113;SDS011;59989;46.220;19.888;2022-07-06T18:01:28;6.03;;;1.30;;
72113;SDS011;59989;46.220;19.888;2022-07-06T18:04:31;8.70;;;1.30;;
72113;SDS011;59989;46.220;19.888;2022-07-06T18:07:35;7.22;;;1.30;;
72113;SDS011;59989;46.220;19.888;2022-07-06T18:10:38;6.60;;;1.23;;
72113;SDS011;59989;46.220;19.888;2022-07-06T18:13:40;6.83;;;1.60;;
72113;SDS011;59989;46.220;19.888;2022-07-06T18:16:43;11.00;;;1.90;;